Time;durP1;ratioP1;P1;durP2;ratioP2;P2;SDS_P1;SDS_P2;PMS_P1;PMS_P2;Temp;Humidity;BMP_temperature;BMP_pressure;BME280_temperature;BME280_humidity;BME280_pressure;Samples;Min_cycle;Max_cycle;Signal;HPM_P1;HPM_P2
2022/02/15 00:00:23;;;;;;;17.40;8.52;;;7.40;99.90;;;;;;5085174;28;20067;-62
2022/02/15 00:02:49;;;;;;;19.95;8.75;;;7.40;99.90;;;;;;5085402;28;20032;-60
2022/02/15 00:05:15;;;;;;;17.83;7.50;;;7.30;99.90;;;;;;5087065;28;20587;-61
2022/02/15 00:07:41;;;;;;;18.35;7.70;;;7.20;99.90;;;;;;5055621;28;20115;-61
2022/02/15 00:10:08;;;;;;;15.20;7.10;;;7.20;99.90;;;;;;5084320;28;20067;-60
2022/02/15 00:12:37;;;;;;;17.10;7.15;;;7.20;99.90;;;;;;5089921;28;20426;-60
2022/02/15 00:15:05;;;;;;;17.80;7.47;;;7.10;99.90;;;;;;5077797;28;20095;-60
2022/02/15 00:17:31;;;;;;;17.58;7.30;;;7.10;99.90;;;;;;5071533;28;20017;-60
2022/02/15 00:19:56;;;;;;;18.02;7.85;;;7.20;99.90;;;;;;5071504;28;20036;-59
2022/02/15 00:22:22;;;;;;;18.00;7.80;;;7.20;99.90;;;;;;5072722;28;20024;-61
2022/02/15 00:24:48;;;;;;;19.67;7.50;;;7.20;99.90;;;;;;5071845;28;20103;-60
2022/02/15 00:27:13;;;;;;;18.08;8.20;;;7.30;99.90;;;;;;5072573;28;20472;-60
2022/02/15 00:29:39;;;;;;;17.45;8.02;;;7.30;99.90;;;;;;5072318;28;20029;-61
2022/02/15 00:32:05;;;;;;;16.70;7.55;;;7.40;99.90;;;;;;5072405;28;20081;-61
2022/02/15 00:34:33;;;;;;;15.60;7.53;;;7.40;99.90;;;;;;5071761;28;20488;-61
2022/02/15 00:36:59;;;;;;;17.52;7.55;;;7.40;99.90;;;;;;5054727;28;20025;-61
2022/02/15 00:39:25;;;;;;;21.95;7.65;;;7.50;99.90;;;;;;5054267;28;20059;-60
2022/02/15 00:41:50;;;;;;;19.77;8.32;;;7.50;99.90;;;;;;5072344;28;20063;-58
2022/02/15 00:44:16;;;;;;;19.35;8.85;;;7.50;99.90;;;;;;5071502;28;20035;-56
2022/02/15 00:46:41;;;;;;;22.13;8.55;;;7.50;99.90;;;;;;5072470;28;20032;-59
2022/02/15 00:49:07;;;;;;;18.83;8.80;;;7.50;99.90;;;;;;5054321;28;20480;-61
2022/02/15 00:51:33;;;;;;;20.63;8.88;;;7.50;99.90;;;;;;5072310;28;20101;-60
2022/02/15 00:53:58;;;;;;;18.10;8.82;;;7.50;99.90;;;;;;5071471;28;20051;-61
2022/02/15 00:56:24;;;;;;;22.55;9.07;;;7.50;99.90;;;;;;5071537;28;20031;-57
2022/02/15 00:58:50;;;;;;;19.25;8.77;;;7.50;99.90;;;;;;5072016;28;20020;-60
2022/02/15 01:01:16;;;;;;;19.77;9.55;;;7.50;99.90;;;;;;5072164;28;20036;-60
2022/02/15 01:03:41;;;;;;;21.13;10.07;;;7.50;99.90;;;;;;5072284;28;20025;-59
2022/02/15 01:06:07;;;;;;;17.38;8.45;;;7.50;99.90;;;;;;5071636;28;20498;-60
2022/02/15 01:08:32;;;;;;;16.23;8.35;;;7.50;99.90;;;;;;5070835;28;20495;-57
2022/02/15 01:10:58;;;;;;;19.52;8.93;;;7.40;99.90;;;;;;5072959;28;20472;-61
2022/02/15 01:13:24;;;;;;;20.70;9.52;;;7.40;99.90;;;;;;5072168;28;20476;-61
2022/02/15 01:15:51;;;;;;;24.98;10.00;;;7.40;99.90;;;;;;5071518;28;20071;-61
2022/02/15 01:18:17;;;;;;;19.67;9.55;;;7.40;99.90;;;;;;5054101;28;20021;-62
2022/02/15 01:20:43;;;;;;;18.65;10.07;;;7.40;99.90;;;;;;5075320;28;20430;-59
2022/02/15 01:23:08;;;;;;;19.50;8.88;;;7.30;99.90;;;;;;5076156;28;20127;-60
2022/02/15 01:25:34;;;;;;;18.48;8.85;;;7.30;99.90;;;;;;5075700;28;20021;-59
2022/02/15 01:28:00;;;;;;;20.95;8.65;;;7.30;99.90;;;;;;5078113;28;20023;-60
2022/02/15 01:30:25;;;;;;;19.23;9.32;;;7.30;99.90;;;;;;5077744;28;20111;-60
2022/02/15 01:32:51;;;;;;;19.67;9.13;;;7.30;99.90;;;;;;5076603;28;20021;-60
2022/02/15 01:35:17;;;;;;;17.30;8.63;;;7.20;99.90;;;;;;5076111;28;20108;-60
2022/02/15 01:37:42;;;;;;;20.85;8.85;;;7.20;99.90;;;;;;5076885;28;20096;-61
2022/02/15 01:40:09;;;;;;;20.05;9.05;;;7.20;99.90;;;;;;5076490;28;20040;-61
2022/02/15 01:42:35;;;;;;;20.88;9.52;;;7.20;99.90;;;;;;5076804;28;20400;-61
2022/02/15 01:45:02;;;;;;;22.00;8.88;;;7.20;99.90;;;;;;5075748;28;20032;-59
2022/02/15 01:47:30;;;;;;;18.67;9.18;;;7.20;99.90;;;;;;5074930;28;20074;-60
2022/02/15 01:49:57;;;;;;;19.38;9.00;;;7.30;99.90;;;;;;5075702;28;20512;-60
2022/02/15 01:52:23;;;;;;;20.23;9.13;;;7.20;99.90;;;;;;5057726;28;20043;-60
2022/02/15 01:54:51;;;;;;;18.80;8.73;;;7.30;99.90;;;;;;5056978;28;20025;-60
2022/02/15 01:57:17;;;;;;;17.73;8.77;;;7.20;99.90;;;;;;5075428;28;20070;-61
2022/02/15 01:59:44;;;;;;;22.70;9.88;;;7.20;99.90;;;;;;5075283;28;20505;-60
2022/02/15 02:02:10;;;;;;;19.13;8.77;;;7.20;99.90;;;;;;5075253;28;20039;-60
2022/02/15 02:07:20;;;;;;;20.45;8.90;;;7.20;99.90;;;;;;5075409;28;20044;-60
2022/02/15 02:09:46;;;;;;;18.75;9.05;;;7.20;99.90;;;;;;5057179;28;20036;-60
2022/02/15 02:12:11;;;;;;;18.60;9.13;;;7.30;99.90;;;;;;5075227;28;20035;-58
2022/02/15 02:14:37;;;;;;;18.30;10.20;;;7.20;99.90;;;;;;5074361;28;20099;-57
2022/02/15 02:17:03;;;;;;;30.42;12.13;;;7.10;99.90;;;;;;5075087;28;20027;-60
2022/02/15 02:19:29;;;;;;;21.10;10.07;;;7.10;99.90;;;;;;5074813;28;20035;-57
2022/02/15 02:21:54;;;;;;;20.00;9.52;;;7.10;99.90;;;;;;5075089;28;20028;-60
2022/02/15 02:24:20;;;;;;;17.67;9.13;;;7.10;99.90;;;;;;5056280;28;20075;-61
2022/02/15 02:26:47;;;;;;;22.50;9.98;;;7.10;99.90;;;;;;5057321;28;20035;-56
2022/02/15 02:29:13;;;;;;;20.10;10.15;;;7.10;99.90;;;;;;5075077;28;20025;-61
2022/02/15 02:31:39;;;;;;;20.58;9.93;;;7.20;99.90;;;;;;5073513;28;20066;-62
2022/02/15 02:34:04;;;;;;;20.92;10.68;;;7.20;99.90;;;;;;5074146;28;20020;-59
2022/02/15 02:36:41;;;;;;;22.52;10.38;;;7.20;99.90;;;;;;5074327;28;20025;-60
2022/02/15 02:39:07;;;;;;;22.38;10.07;;;7.10;99.90;;;;;;5074856;28;20080;-60
2022/02/15 02:41:32;;;;;;;21.08;10.43;;;7.10;99.90;;;;;;5074771;28;20025;-60
2022/02/15 02:43:58;;;;;;;20.20;10.52;;;7.10;99.90;;;;;;5074123;28;20435;-61
2022/02/15 02:46:23;;;;;;;17.02;9.88;;;7.10;99.90;;;;;;5056377;28;20031;-60
2022/02/15 02:48:49;;;;;;;20.38;9.23;;;7.10;99.90;;;;;;5074338;28;20504;-61
2022/02/15 02:51:15;;;;;;;20.40;10.82;;;7.20;99.90;;;;;;5074643;28;20023;-61
2022/02/15 02:53:40;;;;;;;20.33;9.35;;;7.20;99.90;;;;;;5056453;28;20024;-61
2022/02/15 02:56:06;;;;;;;19.30;10.07;;;7.20;99.90;;;;;;5055874;28;20514;-60
2022/02/15 02:58:32;;;;;;;23.60;11.60;;;7.20;99.90;;;;;;5074255;28;20023;-59
2022/02/15 03:00:57;;;;;;;19.55;10.07;;;7.20;99.90;;;;;;5074391;28;20024;-60
2022/02/15 03:03:23;;;;;;;21.63;10.38;;;7.10;99.90;;;;;;5056272;28;20365;-60
2022/02/15 03:05:49;;;;;;;23.13;10.43;;;7.20;99.90;;;;;;5073626;28;20032;-60
2022/02/15 03:08:14;;;;;;;19.70;9.98;;;7.10;99.90;;;;;;5074211;28;20112;-58
2022/02/15 03:10:40;;;;;;;19.95;10.23;;;7.10;99.90;;;;;;5073959;28;20094;-60
2022/02/15 03:13:05;;;;;;;21.15;11.73;;;7.10;99.90;;;;;;5074113;28;20056;-58
2022/02/15 03:15:31;;;;;;;20.85;10.68;;;7.10;99.90;;;;;;5055240;28;20033;-57
2022/02/15 03:17:56;;;;;;;20.23;10.90;;;7.10;99.90;;;;;;5073862;28;20021;-58
2022/02/15 03:20:22;;;;;;;21.00;11.27;;;7.10;99.90;;;;;;5073869;28;20048;-60
2022/02/15 03:22:48;;;;;;;20.67;11.18;;;7.10;99.90;;;;;;5072819;28;20113;-59
2022/02/15 03:25:14;;;;;;;24.05;12.18;;;7.10;99.90;;;;;;5073213;28;20396;-61
2022/02/15 03:27:40;;;;;;;20.60;10.90;;;7.10;99.90;;;;;;5073701;28;20028;-56
2022/02/15 03:30:06;;;;;;;26.55;13.38;;;7.00;99.90;;;;;;5073730;28;20025;-56
2022/02/15 03:32:31;;;;;;;22.35;11.40;;;7.00;99.90;;;;;;5073528;28;20028;-59
2022/02/15 03:34:57;;;;;;;21.77;11.10;;;7.10;99.90;;;;;;5071608;28;20021;-57
2022/02/15 03:37:22;;;;;;;21.60;11.05;;;7.10;99.90;;;;;;5073592;28;20074;-56
2022/02/15 03:39:48;;;;;;;21.02;11.27;;;7.00;99.90;;;;;;5073607;28;20028;-60
2022/02/15 03:44:58;;;;;;;20.88;11.55;;;7.00;99.90;;;;;;5072565;28;20104;-57
2022/02/15 03:47:23;;;;;;;22.58;11.68;;;7.00;99.90;;;;;;5073414;28;20464;-58
2022/02/15 03:49:49;;;;;;;21.38;11.48;;;7.00;99.90;;;;;;5073249;28;20033;-56
2022/02/15 03:52:15;;;;;;;24.15;10.95;;;7.00;99.90;;;;;;5073525;28;20032;-58
2022/02/15 03:54:40;;;;;;;22.20;11.00;;;6.90;99.90;;;;;;5072423;28;20093;-59
2022/02/15 03:57:06;;;;;;;20.75;11.27;;;6.90;99.90;;;;;;5073131;28;20024;-55
2022/02/15 03:59:32;;;;;;;21.55;10.50;;;7.00;99.90;;;;;;5072894;28;20388;-60
2022/02/15 04:01:58;;;;;;;24.38;12.13;;;7.00;99.90;;;;;;5055083;28;20393;-58
2022/02/15 04:04:23;;;;;;;20.95;11.52;;;6.90;99.90;;;;;;5054637;28;20044;-58
2022/02/15 04:06:49;;;;;;;23.40;11.77;;;6.80;99.90;;;;;;5073115;28;20639;-59
2022/02/15 04:09:14;;;;;;;25.42;12.77;;;6.80;99.90;;;;;;5072722;28;20032;-59
2022/02/15 04:11:40;;;;;;;24.55;12.07;;;6.80;99.90;;;;;;5054850;28;20128;-60
2022/02/15 04:14:05;;;;;;;18.77;11.07;;;6.70;99.90;;;;;;5071961;28;20024;-56
2022/02/15 04:16:31;;;;;;;23.33;10.70;;;6.70;99.90;;;;;;5072732;28;20096;-60
2022/02/15 04:18:57;;;;;;;21.60;10.32;;;6.70;99.90;;;;;;5072675;28;20516;-60
2022/02/15 04:21:25;;;;;;;20.40;10.57;;;6.80;99.90;;;;;;5072749;28;20106;-63
2022/02/15 04:23:51;;;;;;;;;;;6.80;99.90;;;;;;5072489;28;20025;-58
2022/02/15 04:26:17;;;;;;;17.73;9.48;;;6.80;99.90;;;;;;5072360;28;19904;-57
2022/02/15 04:28:43;;;;;;;19.88;10.10;;;6.70;99.90;;;;;;5072462;28;20025;-56
2022/02/15 04:31:08;;;;;;;18.25;9.77;;;6.60;99.90;;;;;;5072272;28;20035;-59
2022/02/15 04:33:35;;;;;;;19.30;10.07;;;6.60;99.90;;;;;;5072538;28;20107;-60
2022/02/15 04:36:00;;;;;;;19.95;10.13;;;6.60;99.90;;;;;;5071748;28;20048;-57
2022/02/15 04:38:26;;;;;;;19.25;10.05;;;6.60;99.90;;;;;;5072475;28;20025;-59
2022/02/15 04:40:51;;;;;;;21.95;10.55;;;6.60;99.90;;;;;;5054546;28;20025;-60
2022/02/15 04:43:17;;;;;;;18.90;9.95;;;6.60;99.90;;;;;;5072309;28;20099;-60
2022/02/15 04:45:43;;;;;;;18.80;10.43;;;6.70;99.90;;;;;;5071431;28;20408;-60
2022/02/15 04:48:08;;;;;;;18.90;10.57;;;6.70;99.90;;;;;;5072224;28;20067;-58
2022/02/15 04:50:34;;;;;;;19.13;10.00;;;6.70;99.90;;;;;;5054181;28;20116;-56
2022/02/15 04:52:59;;;;;;;19.70;10.50;;;6.70;99.90;;;;;;5072278;28;20070;-58
2022/02/15 04:55:25;;;;;;;18.08;10.05;;;6.70;99.90;;;;;;5070887;28;20013;-60
2022/02/15 04:57:51;;;;;;;18.65;10.27;;;6.70;99.90;;;;;;5076860;28;20399;-58
2022/02/15 05:00:16;;;;;;;18.20;10.27;;;6.70;99.90;;;;;;5092171;28;20028;-57
2022/02/15 05:02:42;;;;;;;20.60;9.95;;;6.70;99.90;;;;;;5092292;28;20387;-59
2022/02/15 05:05:08;;;;;;;19.42;9.77;;;6.70;99.90;;;;;;5091724;28;20024;-59
2022/02/15 05:07:35;;;;;;;17.75;9.80;;;6.60;99.90;;;;;;5092273;28;20055;-59
2022/02/15 05:10:04;;;;;;;19.98;9.80;;;6.60;99.90;;;;;;5092146;28;20024;-57
2022/02/15 05:12:32;;;;;;;17.02;9.38;;;6.50;99.90;;;;;;5092237;28;20024;-59
2022/02/15 05:14:58;;;;;;;18.57;9.63;;;6.40;99.90;;;;;;5091605;28;20046;-59
2022/02/15 05:17:25;;;;;;;17.40;9.00;;;6.40;99.90;;;;;;5092378;28;20055;-61
2022/02/15 05:19:51;;;;;;;22.30;10.43;;;6.40;99.90;;;;;;5073737;28;20106;-58
2022/02/15 05:22:17;;;;;;;20.83;10.05;;;6.40;99.90;;;;;;5066516;28;20457;-59
2022/02/15 05:24:43;;;;;;;21.90;9.73;;;6.30;99.90;;;;;;5079522;28;20081;-60
2022/02/15 05:27:09;;;;;;;19.27;10.15;;;6.30;99.90;;;;;;5091619;28;20038;-58
2022/02/15 05:29:34;;;;;;;18.13;9.32;;;6.30;99.90;;;;;;5073445;28;20119;-59
2022/02/15 05:32:00;;;;;;;20.65;10.63;;;6.30;99.90;;;;;;5091491;28;20518;-60
2022/02/15 05:34:25;;;;;;;21.50;11.35;;;6.30;99.90;;;;;;5090999;28;20028;-60
2022/02/15 05:36:52;;;;;;;21.10;10.48;;;6.20;99.90;;;;;;5073742;28;20024;-60
2022/02/15 05:39:18;;;;;;;23.70;10.15;;;6.20;99.90;;;;;;5091846;28;20035;-60
2022/02/15 05:41:43;;;;;;;22.42;11.48;;;6.20;99.90;;;;;;5073707;28;20024;-60
2022/02/15 05:44:09;;;;;;;22.17;12.32;;;6.20;99.90;;;;;;5091053;28;20134;-60
2022/02/15 05:46:34;;;;;;;20.45;11.20;;;6.20;99.90;;;;;;5092135;28;20028;-57
2022/02/15 05:49:02;;;;;;;20.13;11.20;;;6.20;99.90;;;;;;5091723;28;20106;-60
2022/02/15 05:51:27;;;;;;;20.37;11.23;;;6.10;99.90;;;;;;5091639;28;20099;-58
2022/02/15 05:53:53;;;;;;;22.38;12.32;;;6.10;99.90;;;;;;5091150;28;20351;-61
2022/02/15 05:56:19;;;;;;;21.58;12.00;;;6.10;99.90;;;;;;5091768;28;20050;-58
2022/02/15 05:58:45;;;;;;;20.85;10.95;;;6.10;99.90;;;;;;5089839;28;20024;-61
2022/02/15 06:01:10;;;;;;;22.63;12.75;;;6.10;99.90;;;;;;5053331;28;20115;-59
2022/02/15 06:04:37;;;;;;;24.83;12.43;;;6.10;99.90;;;;;;5071470;28;20024;-59
2022/02/15 06:06:31;;;;;;;25.67;12.38;;;6.10;99.90;;;;;;5060400;28;20427;-60
2022/02/15 06:08:58;;;;;;;25.83;13.85;;;6.00;99.90;;;;;;5074745;28;20028;-60
2022/02/15 06:11:24;;;;;;;27.13;13.35;;;5.90;99.90;;;;;;5102481;22;20052;-66
2022/02/15 06:13:53;;;;;;;26.33;12.93;;;5.90;99.90;;;;;;5097473;28;20382;-67
2022/02/15 06:16:18;;;;;;;;;;;5.80;99.90;;;;;;5083667;28;20059;-67
2022/02/15 06:18:44;;;;;;;23.65;12.80;;;5.80;99.90;;;;;;5096446;28;19916;-67
2022/02/15 06:21:09;;;;;;;25.02;13.63;;;5.80;99.90;;;;;;5066840;28;20109;-67
2022/02/15 06:23:35;;;;;;;26.38;13.80;;;5.80;99.90;;;;;;5060096;28;20404;-66
2022/02/15 06:26:00;;;;;;;26.77;13.75;;;5.70;99.90;;;;;;5075285;28;20036;-67
2022/02/15 06:28:26;;;;;;;28.55;13.25;;;5.70;99.90;;;;;;5076445;28;20425;-64
2022/02/15 06:30:52;;;;;;;22.98;13.27;;;5.80;99.90;;;;;;5076677;28;20039;-68
2022/02/15 06:33:17;;;;;;;23.70;12.77;;;5.80;99.90;;;;;;5076556;28;20086;-67
2022/02/15 06:35:43;;;;;;;23.80;13.52;;;5.80;99.90;;;;;;5075148;28;20082;-68
2022/02/15 06:38:08;;;;;;;23.23;12.93;;;5.80;99.90;;;;;;5057184;28;20370;-66
2022/02/15 06:40:34;;;;;;;23.05;13.15;;;5.80;99.90;;;;;;5074997;28;20039;-68
2022/02/15 06:43:00;;;;;;;23.92;12.98;;;5.90;99.90;;;;;;5075800;28;20028;-66
2022/02/15 06:45:25;;;;;;;24.70;13.23;;;5.90;99.90;;;;;;5057111;28;20150;-66
2022/02/15 06:47:51;;;;;;;25.33;13.43;;;5.90;99.90;;;;;;5057162;28;20026;-65
2022/02/15 06:50:16;;;;;;;24.88;12.80;;;5.90;99.90;;;;;;5078134;28;20065;-70
2022/02/15 06:52:42;;;;;;;24.67;13.65;;;5.90;99.90;;;;;;5058898;28;20036;-64
2022/02/15 06:55:09;;;;;;;24.25;13.30;;;6.00;99.90;;;;;;5074093;28;20092;-67
2022/02/15 06:57:34;;;;;;;26.13;13.35;;;5.90;99.90;;;;;;5075409;28;20029;-68
2022/02/15 07:00:00;;;;;;;25.75;13.65;;;6.00;99.90;;;;;;5075669;28;20116;-67
2022/02/15 07:02:25;;;;;;;22.98;12.82;;;6.00;99.90;;;;;;5075005;28;20043;-68
2022/02/15 07:04:51;;;;;;;28.00;13.75;;;6.00;99.90;;;;;;5074550;28;20431;-69
2022/02/15 07:07:16;;;;;;;24.67;14.38;;;6.00;99.90;;;;;;5073580;28;20031;-66
2022/02/15 07:09:42;;;;;;;24.85;13.60;;;6.00;99.90;;;;;;5074209;28;20346;-64
2022/02/15 07:12:11;;;;;;;26.65;12.80;;;6.00;99.90;;;;;;5073970;28;20028;-68
2022/02/15 07:14:37;;;;;;;27.75;13.98;;;6.00;99.90;;;;;;5074347;28;20028;-67
2022/02/15 07:17:03;;;;;;;27.73;13.45;;;6.00;99.90;;;;;;5056579;28;20017;-66
2022/02/15 07:19:32;;;;;;;26.48;14.63;;;6.00;99.90;;;;;;5075061;28;20059;-67
2022/02/15 07:22:02;;;;;;;26.50;13.43;;;6.10;99.90;;;;;;5056110;28;20024;-68
2022/02/15 07:24:27;;;;;;;29.20;15.90;;;6.20;99.90;;;;;;5055512;28;20078;-65
2022/02/15 07:26:54;;;;;;;28.42;15.05;;;6.30;99.90;;;;;;5056582;28;20036;-66
2022/02/15 07:29:20;;;;;;;27.70;13.20;;;6.30;99.90;;;;;;5056952;28;20086;-67
2022/02/15 07:31:47;;;;;;;27.25;14.40;;;6.30;99.90;;;;;;5074031;28;20031;-69
2022/02/15 07:34:13;;;;;;;28.42;15.48;;;6.40;99.90;;;;;;5054781;28;20032;-67
2022/02/15 07:36:38;;;;;;;25.30;14.02;;;6.40;99.90;;;;;;5072933;28;20020;-64
2022/02/15 07:39:04;;;;;;;31.38;15.55;;;6.40;99.90;;;;;;5054260;28;20674;-58
2022/02/15 07:41:30;;;;;;;27.05;14.70;;;6.40;99.90;;;;;;5071319;28;20035;-63
2022/02/15 07:43:56;;;;;;;29.90;15.50;;;6.30;99.90;;;;;;5071696;28;20074;-62
2022/02/15 07:46:23;;;;;;;29.23;15.80;;;6.30;99.90;;;;;;5071613;28;20020;-63
2022/02/15 07:48:49;;;;;;;29.02;15.25;;;6.30;99.90;;;;;;5066334;28;20060;-64
2022/02/15 07:51:16;;;;;;;28.77;15.48;;;6.40;99.90;;;;;;5050801;28;20026;-63
2022/02/15 07:53:41;;;;;;;30.70;14.43;;;6.40;99.90;;;;;;5051710;28;20071;-64
2022/02/15 07:56:07;;;;;;;29.05;14.80;;;6.40;99.90;;;;;;5050617;28;20100;-63
2022/02/15 07:58:33;;;;;;;32.25;15.93;;;6.40;99.90;;;;;;5051730;28;20021;-64
2022/02/15 08:00:58;;;;;;;28.17;15.23;;;6.40;99.90;;;;;;5052465;28;20020;-64
2022/02/15 08:03:24;;;;;;;31.00;15.40;;;6.50;99.90;;;;;;5071543;28;20365;-66
2022/02/15 08:05:51;;;;;;;31.48;15.65;;;6.50;99.90;;;;;;5070130;28;20502;-68
2022/02/15 08:08:17;;;;;;;30.58;15.88;;;6.50;99.90;;;;;;5071382;28;20107;-66
2022/02/15 08:10:44;;;;;;;30.67;17.02;;;6.50;99.90;;;;;;5068783;28;20056;-69
2022/02/15 08:13:10;;;;;;;30.90;15.65;;;6.50;99.90;;;;;;5071215;28;20441;-67
2022/02/15 08:15:40;;;;;;;27.35;15.05;;;6.60;99.90;;;;;;5052823;28;20036;-67
2022/02/15 08:18:06;;;;;;;29.83;16.17;;;6.60;99.90;;;;;;5071250;28;20024;-68
2022/02/15 08:20:33;;;;;;;28.48;16.88;;;6.60;99.90;;;;;;5052964;28;20036;-67
2022/02/15 08:22:59;;;;;;;34.42;18.52;;;6.60;99.90;;;;;;5053490;28;20051;-67
2022/02/15 08:25:25;;;;;;;29.98;15.80;;;6.70;99.90;;;;;;5070591;28;20474;-68
2022/02/15 08:27:51;;;;;;;32.47;17.85;;;6.60;99.90;;;;;;5071259;28;20035;-70
2022/02/15 08:30:17;;;;;;;38.50;18.50;;;6.60;99.90;;;;;;5070051;28;20043;-68
2022/02/15 08:32:43;;;;;;;30.15;17.98;;;6.70;99.90;;;;;;5053149;28;20017;-70
2022/02/15 08:35:09;;;;;;;32.00;17.80;;;6.70;99.90;;;;;;5070313;28;20112;-66
2022/02/15 08:37:36;;;;;;;37.13;17.08;;;6.70;99.90;;;;;;5053148;28;20039;-69
2022/02/15 08:40:07;;;;;;;28.50;16.10;;;6.70;99.90;;;;;;5052912;28;20032;-65
2022/02/15 08:42:32;;;;;;;29.25;16.55;;;6.80;99.90;;;;;;5070812;28;20477;-67
2022/02/15 08:44:58;;;;;;;32.70;18.33;;;6.80;99.90;;;;;;5070620;28;20031;-66
2022/02/15 08:47:25;;;;;;;32.38;18.88;;;6.80;99.90;;;;;;5070937;28;20035;-67
2022/02/15 08:49:51;;;;;;;34.05;17.20;;;6.90;99.90;;;;;;5070444;28;20090;-67
2022/02/15 08:52:19;;;;;;;31.98;17.08;;;6.90;99.90;;;;;;5052643;28;20025;-67
2022/02/15 08:54:45;;;;;;;31.27;18.08;;;6.90;99.90;;;;;;5069755;28;20021;-67
2022/02/15 08:57:11;;;;;;;31.55;17.05;;;6.90;99.90;;;;;;5070533;28;20036;-64
2022/02/15 08:59:37;;;;;;;33.60;19.00;;;7.00;99.90;;;;;;5052345;28;20032;-66
2022/02/15 09:02:03;;;;;;;34.90;18.75;;;7.00;99.90;;;;;;5070509;28;20028;-67
2022/02/15 09:04:29;;;;;;;30.77;17.58;;;7.00;99.90;;;;;;5070075;28;20422;-67
2022/02/15 09:06:55;;;;;;;34.28;19.60;;;7.00;99.90;;;;;;5070534;28;20031;-67
2022/02/15 09:09:21;;;;;;;35.00;18.40;;;7.00;99.90;;;;;;5052370;28;20028;-68
2022/02/15 09:11:47;;;;;;;35.58;19.58;;;7.00;99.90;;;;;;5070216;28;20032;-66
2022/02/15 09:14:13;;;;;;;34.38;18.70;;;7.10;99.90;;;;;;5051854;28;20104;-68
2022/02/15 09:16:38;;;;;;;34.63;19.90;;;7.10;99.90;;;;;;5052561;28;20048;-67
2022/02/15 09:19:05;;;;;;;35.40;18.38;;;7.10;99.90;;;;;;5070925;28;20492;-66
2022/02/15 09:21:31;;;;;;;31.92;18.55;;;7.10;99.90;;;;;;5070361;28;20108;-67
2022/02/15 09:23:57;;;;;;;32.60;17.58;;;7.20;99.90;;;;;;5052138;28;20488;-67
2022/02/15 09:26:22;;;;;;;29.38;17.15;;;7.20;99.90;;;;;;5070078;28;20025;-67
2022/02/15 09:28:48;;;;;;;31.92;17.83;;;7.20;99.90;;;;;;5052317;28;20066;-67
2022/02/15 09:31:14;;;;;;;28.40;16.20;;;7.30;99.90;;;;;;5070092;28;20086;-67
2022/02/15 09:33:41;;;;;;;35.85;18.67;;;7.30;99.90;;;;;;5070136;28;20025;-66
2022/02/15 09:36:07;;;;;;;29.98;15.02;;;7.20;99.90;;;;;;5069615;28;20021;-67
2022/02/15 09:38:33;;;;;;;32.55;17.45;;;7.30;99.90;;;;;;5070263;28;20093;-65
2022/02/15 09:41:02;;;;;;;31.63;17.65;;;7.30;99.90;;;;;;5053826;28;20055;-66
2022/02/15 09:43:28;;;;;;;32.22;18.48;;;7.20;99.90;;;;;;5074059;28;20020;-66
2022/02/15 09:45:55;;;;;;;36.40;18.60;;;7.20;99.90;;;;;;5073319;28;20032;-65
2022/02/15 09:48:24;;;;;;;40.95;16.77;;;7.30;99.90;;;;;;5055879;28;20081;-67
2022/02/15 09:50:51;;;;;;;37.67;18.42;;;7.30;99.90;;;;;;5073709;28;20477;-65
2022/02/15 09:53:17;;;;;;;30.73;17.83;;;7.20;99.90;;;;;;5073649;28;20020;-67
2022/02/15 09:55:43;;;;;;;31.35;17.25;;;7.10;99.90;;;;;;5055195;28;20035;-66
2022/02/15 09:58:09;;;;;;;37.53;18.65;;;7.10;99.90;;;;;;5073753;28;20496;-67
2022/02/15 10:00:35;;;;;;;31.23;16.63;;;7.20;99.90;;;;;;5073534;28;20072;-68
2022/02/15 10:03:02;;;;;;;31.65;16.95;;;7.20;99.90;;;;;;5073535;28;20569;-64
2022/02/15 10:05:33;;;;;;;30.55;16.52;;;7.20;99.90;;;;;;5054911;28;20032;-67
2022/02/15 10:08:00;;;;;;;31.73;17.20;;;7.30;99.90;;;;;;5074066;28;20452;-68
2022/02/15 10:10:36;;;;;;;32.03;17.77;;;7.40;99.90;;;;;;5073264;28;20437;-68
2022/02/15 10:13:09;;;;;;;29.65;15.30;;;7.60;99.90;;;;;;5055740;28;20013;-67
2022/02/15 10:15:41;;;;;;;28.00;15.02;;;7.70;99.90;;;;;;5072950;28;20301;-67
2022/02/15 10:18:12;;;;;;;32.95;18.33;;;7.70;99.90;;;;;;5073679;28;20132;-67
2022/02/15 10:20:41;;;;;;;35.60;16.10;;;7.80;99.90;;;;;;5073178;28;20028;-68
2022/02/15 10:23:22;;;;;;;31.38;15.07;;;7.90;99.90;;;;;;5073347;28;20028;-67
2022/02/15 10:25:50;;;;;;;30.63;15.00;;;8.00;99.90;;;;;;5072412;28;20082;-68
2022/02/15 10:28:22;;;;;;;30.73;15.27;;;8.00;99.90;;;;;;5073409;28;20028;-65
2022/02/15 10:30:53;;;;;;;28.90;15.35;;;8.00;99.90;;;;;;5073008;28;20104;-67
2022/02/15 10:33:20;;;;;;;28.88;14.52;;;8.10;99.90;;;;;;5055373;28;20016;-67
2022/02/15 10:36:01;;;;;;;31.27;17.27;;;8.20;99.90;;;;;;5072811;28;20038;-67
2022/02/15 10:38:29;;;;;;;29.77;15.93;;;8.10;99.90;;;;;;5073253;28;20021;-67
2022/02/15 10:41:16;;;;;;;27.13;14.73;;;8.00;99.90;;;;;;5072836;28;20082;-68
2022/02/15 10:43:46;;;;;;;31.83;16.40;;;8.00;99.90;;;;;;5072809;28;20392;-65
2022/02/15 10:46:17;;;;;;;32.63;16.30;;;8.00;99.90;;;;;;5072054;28;20032;-67
2022/02/15 10:48:44;;;;;;;32.03;16.35;;;8.10;99.90;;;;;;5072933;28;20032;-69
2022/02/15 10:51:10;;;;;;;29.55;17.05;;;8.00;99.90;;;;;;5073017;28;20104;-67
2022/02/15 10:53:36;;;;;;;41.78;16.38;;;8.10;99.90;;;;;;5071565;28;20031;-67
2022/02/15 10:56:03;;;;;;;29.52;16.55;;;8.30;99.90;;;;;;5053749;28;20017;-68
2022/02/15 10:58:31;;;;;;;27.58;15.45;;;8.50;99.90;;;;;;5054803;28;20044;-67
2022/02/15 11:00:58;;;;;;;29.90;15.47;;;8.90;99.90;;;;;;5072527;28;20029;-67
2022/02/15 11:03:28;;;;;;;28.13;16.40;;;8.90;99.90;;;;;;5072788;28;20171;-67
2022/02/15 11:05:54;;;;;;;28.90;15.35;;;8.80;99.90;;;;;;5072080;28;20028;-67
2022/02/15 11:08:20;;;;;;;27.10;14.82;;;8.70;99.90;;;;;;5072619;28;20028;-70
2022/02/15 11:10:59;;;;;;;28.35;14.43;;;8.60;99.90;;;;;;5072660;28;20077;-68
2022/02/15 11:13:26;;;;;;;28.15;13.45;;;8.40;99.90;;;;;;5072442;28;20021;-67
2022/02/15 11:15:53;;;;;;;26.17;13.23;;;8.40;99.90;;;;;;5071704;28;20409;-64
2022/02/15 11:18:32;;;;;;;30.02;15.10;;;8.20;99.90;;;;;;5054390;28;20020;-67
2022/02/15 11:21:01;;;;;;;26.70;14.05;;;8.20;99.90;;;;;;5072204;28;20078;-67
2022/02/15 11:23:35;;;;;;;24.85;12.98;;;8.10;99.90;;;;;;5072661;28;20126;-67
2022/02/15 11:26:13;;;;;;;29.30;13.57;;;8.30;99.90;;;;;;5071670;28;20103;-67
2022/02/15 11:28:51;;;;;;;27.90;14.80;;;8.20;99.90;;;;;;5072134;28;20116;-67
2022/02/15 11:31:39;;;;;;;26.58;12.60;;;8.30;99.90;;;;;;5053426;28;20025;-67
2022/02/15 11:34:07;;;;;;;25.48;12.70;;;8.30;99.90;;;;;;5053918;28;20109;-66
2022/02/15 11:36:50;;;;;;;22.05;12.45;;;8.30;99.90;;;;;;5071972;28;20477;-68
2022/02/15 11:39:21;;;;;;;24.88;12.02;;;8.40;99.90;;;;;;5054387;28;20025;-68
2022/02/15 11:41:49;;;;;;;21.67;12.10;;;8.50;99.90;;;;;;5071824;28;20209;-71
2022/02/15 11:44:15;;;;;;;20.52;10.70;;;8.70;99.90;;;;;;5071298;28;20101;-69
2022/02/15 11:46:46;;;;;;;21.38;11.02;;;9.00;99.90;;;;;;5054680;28;20405;-68
2022/02/15 11:49:17;;;;;;;23.23;11.15;;;9.40;99.90;;;;;;5053742;28;20059;-67
2022/02/15 11:51:49;;;;;;;22.17;10.43;;;9.70;99.90;;;;;;5053712;28;20029;-67
2022/02/15 11:54:21;;;;;;;25.10;12.35;;;9.70;99.90;;;;;;5071460;28;20108;-66
2022/02/15 11:56:49;;;;;;;20.38;10.57;;;10.00;99.90;;;;;;5054045;28;20021;-67
2022/02/15 11:59:21;;;;;;;21.23;10.65;;;9.90;99.90;;;;;;5054102;28;20020;-67
2022/02/15 12:01:56;;;;;;;24.95;11.10;;;9.70;99.90;;;;;;5053367;28;20043;-67
2022/02/15 12:04:22;;;;;;;19.13;10.60;;;10.60;99.90;;;;;;5065634;28;20087;-69
2022/02/15 12:06:48;;;;;;;20.75;11.52;;;10.70;99.90;;;;;;5070172;28;20077;-67
2022/02/15 12:09:15;;;;;;;18.42;9.68;;;10.30;99.90;;;;;;5070512;28;20058;-67
2022/02/15 12:11:43;;;;;;;20.80;10.00;;;10.00;99.90;;;;;;5105446;22;20036;-55
2022/02/15 12:14:19;;;;;;;22.07;9.50;;;10.70;99.90;;;;;;5072119;28;20126;-53
2022/02/15 12:16:56;;;;;;;17.60;9.93;;;11.00;99.90;;;;;;5090886;28;20305;-54
2022/02/15 12:19:28;;;;;;;19.08;9.55;;;11.00;99.90;;;;;;5092195;28;20028;-55
2022/02/15 12:21:56;;;;;;;20.30;9.57;;;11.50;99.90;;;;;;5076152;28;20025;-52
2022/02/15 12:24:22;;;;;;;17.55;9.65;;;11.00;99.90;;;;;;5071291;28;20472;-53
2022/02/15 12:26:49;;;;;;;17.75;10.02;;;11.10;99.90;;;;;;5069206;28;20115;-52
2022/02/15 12:29:16;;;;;;;17.95;10.13;;;11.10;99.90;;;;;;5071984;28;20322;-54
2022/02/15 12:31:42;;;;;;;19.35;10.25;;;10.70;99.90;;;;;;5072335;28;20036;-54
2022/02/15 12:34:12;;;;;;;17.35;9.18;;;9.90;99.90;;;;;;5071722;28;20336;-57
2022/02/15 12:36:39;;;;;;;19.45;9.68;;;9.40;99.90;;;;;;5072087;28;20016;-53
2022/02/15 12:39:06;;;;;;;19.70;9.60;;;9.10;99.90;;;;;;5072685;28;20020;-53
2022/02/15 12:41:37;;;;;;;18.45;10.18;;;9.00;99.90;;;;;;5053857;28;20025;-56
2022/02/15 12:44:05;;;;;;;18.85;10.63;;;9.00;99.90;;;;;;5053549;28;20095;-52